Time;durP1;ratioP1;P1;durP2;ratioP2;P2;SDS_P1;SDS_P2;PMS_P1;PMS_P2;Temp;Humidity;BMP_temperature;BMP_pressure;BME280_temperature;BME280_humidity;BME280_pressure;Samples;Min_cycle;Max_cycle;Signal;HPM_P1;HPM_P2
2024/02/21 00:00:34;;;;;;;4.93;3.60;;;9.10;99.90;;;;;;5067428;28;20695;-76
2024/02/21 00:03:04;;;;;;;5.80;3.30;;;9.10;99.90;;;;;;5071386;28;20462;-78
2024/02/21 00:05:32;;;;;;;4.13;3.67;;;9.10;99.90;;;;;;5068140;28;20458;-79
2024/02/21 00:08:01;;;;;;;4.93;3.50;;;9.10;99.90;;;;;;5065509;28;20451;-77
2024/02/21 00:10:31;;;;;;;4.03;3.30;;;9.10;99.90;;;;;;5066068;28;20479;-78
2024/02/21 00:13:00;;;;;;;7.63;3.23;;;9.00;99.90;;;;;;5066285;28;20513;-77
2024/02/21 00:15:28;;;;;;;5.73;3.57;;;9.00;99.90;;;;;;5065488;28;20458;-76
2024/02/21 00:17:58;;;;;;;5.60;3.63;;;9.00;99.90;;;;;;5067581;28;20467;-83
2024/02/21 00:20:26;;;;;;;5.70;3.67;;;9.00;99.90;;;;;;5066625;28;20443;-77
2024/02/21 00:22:55;;;;;;;3.93;3.10;;;9.10;99.90;;;;;;5064915;28;20512;-77
2024/02/21 00:25:23;;;;;;;5.57;3.60;;;9.10;99.90;;;;;;5068771;28;20451;-75
2024/02/21 00:27:53;;;;;;;3.80;2.87;;;9.10;99.90;;;;;;5064640;28;20919;-77
2024/02/21 00:30:21;;;;;;;5.60;3.23;;;9.20;99.90;;;;;;5064804;28;20471;-79
2024/02/21 00:32:50;;;;;;;4.07;2.83;;;9.10;99.90;;;;;;5066940;28;20453;-77
2024/02/21 00:35:20;;;;;;;4.50;2.83;;;8.90;99.90;;;;;;5068203;28;20451;-75
2024/02/21 00:37:48;;;;;;;4.20;3.23;;;8.90;99.90;;;;;;5068243;28;20458;-77
2024/02/21 00:40:19;;;;;;;8.30;3.40;;;8.90;99.90;;;;;;5064752;28;20466;-75
2024/02/21 00:42:48;;;;;;;5.77;3.27;;;8.90;99.90;;;;;;5066512;28;20456;-77
2024/02/21 00:45:16;;;;;;;3.90;3.13;;;8.90;99.90;;;;;;5069757;28;20443;-77
2024/02/21 00:47:45;;;;;;;5.03;2.90;;;8.90;99.90;;;;;;5066499;28;20444;-76
2024/02/21 00:50:13;;;;;;;5.80;3.50;;;8.90;99.90;;;;;;5066921;28;20566;-74
2024/02/21 00:52:43;;;;;;;4.80;3.20;;;8.80;99.90;;;;;;5065189;28;20828;-80
2024/02/21 00:55:12;;;;;;;4.07;2.90;;;8.80;99.90;;;;;;5063473;28;20448;-79
2024/02/21 00:57:40;;;;;;;3.20;2.90;;;8.80;99.90;;;;;;5067987;28;20523;-76
2024/02/21 01:00:09;;;;;;;6.30;3.70;;;8.90;99.90;;;;;;5064956;28;20455;-76
2024/02/21 01:02:37;;;;;;;6.23;2.80;;;8.90;99.90;;;;;;5062188;28;21075;-80
2024/02/21 01:05:06;;;;;;;4.73;3.00;;;8.90;99.90;;;;;;5062307;28;20459;-77
2024/02/21 01:07:34;;;;;;;4.90;2.70;;;8.90;99.90;;;;;;5064969;28;21131;-78
2024/02/21 01:10:05;;;;;;;7.20;3.00;;;8.90;99.90;;;;;;5062536;28;20479;-77
2024/02/21 01:12:33;;;;;;;7.33;2.90;;;8.90;99.90;;;;;;5065093;28;20486;-78
2024/02/21 01:15:01;;;;;;;5.53;2.70;;;8.90;99.90;;;;;;5064912;28;20683;-76
2024/02/21 01:17:30;;;;;;;3.03;2.80;;;9.00;99.90;;;;;;5063333;28;20450;-77
2024/02/21 01:19:58;;;;;;;7.37;3.30;;;9.00;99.90;;;;;;5067284;28;20444;-77
2024/02/21 01:22:26;;;;;;;7.60;3.83;;;8.90;99.90;;;;;;5059698;28;20568;-76
2024/02/21 01:24:55;;;;;;;3.80;2.60;;;8.90;99.90;;;;;;5062802;28;20460;-76
2024/02/21 01:27:24;;;;;;;4.53;2.93;;;8.90;99.90;;;;;;5060557;28;20465;-75
2024/02/21 01:29:53;;;;;;;6.10;2.80;;;9.00;99.90;;;;;;5064754;28;20460;-75
2024/02/21 01:32:21;;;;;;;3.10;2.50;;;9.00;99.90;;;;;;5061012;28;20489;-78
2024/02/21 01:34:50;;;;;;;7.23;3.10;;;8.80;99.90;;;;;;5059497;28;20459;-76
2024/02/21 01:37:18;;;;;;;4.43;2.67;;;8.90;99.90;;;;;;5065994;28;20463;-77
2024/02/21 01:39:46;;;;;;;8.03;3.07;;;8.80;99.90;;;;;;5060911;28;20470;-76
2024/02/21 01:42:15;;;;;;;4.40;2.70;;;8.70;99.90;;;;;;5060119;28;20475;-77
2024/02/21 01:44:44;;;;;;;5.80;2.67;;;8.70;99.90;;;;;;5062237;28;20470;-78
2024/02/21 01:47:14;;;;;;;2.90;2.47;;;8.80;99.90;;;;;;5062512;28;20474;-78
2024/02/21 01:49:42;;;;;;;4.00;3.07;;;8.90;99.90;;;;;;5065631;28;20446;-77
2024/02/21 01:52:13;;;;;;;4.43;3.00;;;8.80;99.90;;;;;;5064716;28;20484;-76
2024/02/21 01:54:41;;;;;;;7.60;2.40;;;8.60;99.90;;;;;;5063765;28;20490;-76
2024/02/21 01:57:10;;;;;;;5.80;2.70;;;8.70;99.90;;;;;;5063318;28;20459;-78
2024/02/21 01:59:38;;;;;;;4.40;2.93;;;8.70;99.90;;;;;;5059859;28;20743;-78
2024/02/21 02:02:08;;;;;;;4.43;3.03;;;8.80;99.90;;;;;;5061214;28;20558;-78
2024/02/21 02:04:39;;;;;;;5.20;2.53;;;8.70;99.90;;;;;;5063691;28;20466;-78
2024/02/21 02:07:08;;;;;;;3.57;3.27;;;8.70;99.90;;;;;;5061130;28;21066;-77
2024/02/21 02:09:37;;;;;;;7.50;3.30;;;8.70;99.90;;;;;;5055702;28;20450;-80
2024/02/21 02:12:06;;;;;;;7.57;3.43;;;8.80;99.90;;;;;;5058236;28;20566;-77
2024/02/21 02:14:34;;;;;;;4.60;3.60;;;8.70;99.90;;;;;;5058463;28;20452;-76
2024/02/21 02:17:02;;;;;;;6.80;3.73;;;8.70;99.90;;;;;;5059225;28;21000;-80
2024/02/21 02:19:32;;;;;;;3.40;3.10;;;8.70;99.90;;;;;;5061865;28;20443;-80
2024/02/21 02:22:09;;;;;;;4.07;2.93;;;8.70;99.90;;;;;;5063068;28;20475;-78
2024/02/21 02:24:39;;;;;;;3.00;2.70;;;8.70;99.90;;;;;;5063481;28;20444;-79
2024/02/21 02:27:07;;;;;;;9.10;3.87;;;8.70;99.90;;;;;;5060286;28;20464;-78
2024/02/21 02:29:35;;;;;;;5.77;3.07;;;8.70;99.90;;;;;;5060167;28;20444;-81
2024/02/21 02:32:04;;;;;;;4.87;2.90;;;8.70;99.90;;;;;;5059159;28;20495;-79
2024/02/21 02:34:32;;;;;;;6.30;3.90;;;8.70;99.90;;;;;;5062690;28;20466;-78
2024/02/21 02:37:00;;;;;;;4.60;3.13;;;8.70;99.90;;;;;;5061534;28;20487;-78
2024/02/21 02:39:29;;;;;;;3.50;3.20;;;8.80;99.90;;;;;;5061649;28;20999;-77
2024/02/21 02:41:58;;;;;;;4.37;3.00;;;8.70;99.90;;;;;;5058954;28;20485;-76
2024/02/21 02:44:26;;;;;;;6.27;3.60;;;8.70;99.90;;;;;;5060040;28;20447;-77
2024/02/21 02:46:55;;;;;;;5.37;3.50;;;8.50;99.90;;;;;;5065482;28;21040;-78
2024/02/21 02:49:23;;;;;;;5.13;2.73;;;8.70;99.90;;;;;;5062117;28;20991;-75
2024/02/21 02:51:52;;;;;;;9.83;2.90;;;8.70;99.90;;;;;;5061988;28;20472;-77
2024/02/21 02:54:20;;;;;;;3.70;3.43;;;8.50;99.90;;;;;;5061062;28;21011;-78
2024/02/21 02:56:48;;;;;;;7.70;3.97;;;8.50;99.90;;;;;;5066153;28;20549;-77
2024/02/21 02:59:18;;;;;;;3.10;2.80;;;8.50;99.90;;;;;;5064982;28;20447;-78
2024/02/21 03:01:48;;;;;;;3.20;2.90;;;8.60;99.90;;;;;;5063044;28;20470;-76
2024/02/21 03:04:16;;;;;;;3.70;3.40;;;8.70;99.90;;;;;;5063065;28;20472;-80
2024/02/21 03:06:44;;;;;;;6.47;2.97;;;8.60;99.90;;;;;;5063895;28;22055;-76
2024/02/21 03:09:12;;;;;;;4.33;3.20;;;8.80;99.90;;;;;;5062719;28;20543;-75
2024/02/21 03:11:42;;;;;;;3.57;2.90;;;8.70;99.90;;;;;;5059072;28;20509;-77
2024/02/21 03:14:11;;;;;;;5.20;2.67;;;8.80;99.90;;;;;;5061424;28;20472;-77
2024/02/21 03:16:40;;;;;;;5.53;3.50;;;8.70;99.90;;;;;;5060326;28;20524;-78
2024/02/21 03:19:09;;;;;;;5.33;3.30;;;8.60;99.90;;;;;;5061345;28;20489;-76
2024/02/21 03:21:37;;;;;;;4.70;2.80;;;8.50;99.90;;;;;;5064769;28;20879;-75
2024/02/21 03:24:06;;;;;;;3.53;3.23;;;8.60;99.90;;;;;;5064290;28;20454;-75
2024/02/21 03:26:34;;;;;;;4.03;3.20;;;8.60;99.90;;;;;;5061630;28;20562;-75
2024/02/21 03:29:02;;;;;;;4.50;3.50;;;8.60;99.90;;;;;;5061844;28;20451;-73
2024/02/21 03:31:31;;;;;;;6.93;3.97;;;8.60;99.90;;;;;;5060526;28;20534;-78
2024/02/21 03:34:01;;;;;;;4.93;3.37;;;8.60;99.90;;;;;;5058478;28;20447;-76
2024/02/21 03:36:29;;;;;;;5.10;2.83;;;8.60;99.90;;;;;;5059695;28;20452;-77
2024/02/21 03:38:57;;;;;;;6.87;4.03;;;8.50;99.90;;;;;;5060798;28;20859;-77
2024/02/21 03:41:26;;;;;;;4.07;2.90;;;8.40;99.90;;;;;;5061249;28;20459;-78
2024/02/21 03:43:54;;;;;;;5.87;3.27;;;8.40;99.90;;;;;;5061377;28;20538;-76
2024/02/21 03:46:22;;;;;;;5.50;3.20;;;8.50;99.90;;;;;;5060732;28;20451;-80
2024/02/21 03:48:50;;;;;;;5.37;2.97;;;8.50;99.90;;;;;;5065268;28;20937;-75
2024/02/21 03:51:20;;;;;;;8.10;2.37;;;8.50;99.90;;;;;;5059633;28;20482;-77
2024/02/21 03:53:48;;;;;;;4.87;2.90;;;8.50;99.90;;;;;;5061235;28;20851;-78
2024/02/21 03:56:16;;;;;;;7.03;3.47;;;8.50;99.90;;;;;;5061098;28;20436;-76
2024/02/21 03:58:45;;;;;;;3.10;2.80;;;8.40;99.90;;;;;;5062718;28;20457;-76
2024/02/21 04:01:16;;;;;;;4.17;3.50;;;8.40;99.90;;;;;;5059224;28;20574;-76
2024/02/21 04:03:45;;;;;;;6.73;3.13;;;8.40;99.90;;;;;;5061390;28;20550;-76
2024/02/21 04:06:13;;;;;;;3.53;2.90;;;8.40;99.90;;;;;;5065110;28;20439;-77
2024/02/21 04:08:43;;;;;;;2.73;2.53;;;8.40;99.90;;;;;;5061987;28;20459;-76
2024/02/21 04:11:11;;;;;;;5.87;2.80;;;8.40;99.90;;;;;;5062483;28;20482;-78
2024/02/21 04:13:39;;;;;;;3.57;2.73;;;8.40;99.90;;;;;;5063350;28;20445;-73
2024/02/21 04:16:07;;;;;;;3.97;3.10;;;8.40;99.90;;;;;;5065544;28;20538;-78
2024/02/21 04:18:35;;;;;;;3.50;2.87;;;8.40;99.90;;;;;;5067920;28;20453;-75
2024/02/21 04:21:04;;;;;;;6.93;4.00;;;8.40;99.90;;;;;;5065488;28;20476;-76
2024/02/21 04:23:32;;;;;;;3.50;3.20;;;8.30;99.90;;;;;;5064655;28;20470;-78
2024/02/21 04:26:02;;;;;;;3.70;2.87;;;8.40;99.90;;;;;;5065476;28;20491;-77
2024/02/21 04:28:30;;;;;;;2.63;2.43;;;8.40;99.90;;;;;;5063784;28;20447;-76
2024/02/21 04:30:58;;;;;;;6.57;3.37;;;8.40;99.90;;;;;;5063788;28;20483;-80
2024/02/21 04:33:27;;;;;;;2.90;2.37;;;8.40;99.90;;;;;;5065122;28;20481;-80
2024/02/21 04:35:58;;;;;;;4.20;2.87;;;8.40;99.90;;;;;;5063627;28;20467;-78
2024/02/21 04:38:26;;;;;;;4.80;3.00;;;8.30;99.90;;;;;;5065388;28;20459;-74
2024/02/21 04:40:55;;;;;;;4.43;3.00;;;8.30;99.90;;;;;;5062083;28;20491;-75
2024/02/21 04:43:25;;;;;;;3.43;2.70;;;8.30;99.90;;;;;;5065304;28;20451;-78
2024/02/21 04:45:53;;;;;;;5.77;2.50;;;8.30;99.90;;;;;;5066224;28;20712;-79
2024/02/21 04:48:22;;;;;;;3.97;2.90;;;8.30;99.90;;;;;;5066337;28;20438;-75
2024/02/21 04:50:50;;;;;;;3.70;2.63;;;8.30;99.90;;;;;;5064926;28;20481;-73
2024/02/21 04:53:18;;;;;;;3.10;2.80;;;8.40;99.90;;;;;;5063776;28;20518;-77
2024/02/21 04:55:47;;;;;;;6.17;3.10;;;8.40;99.90;;;;;;5063190;28;20451;-75
2024/02/21 04:58:15;;;;;;;2.90;2.33;;;8.40;99.90;;;;;;5065045;28;20972;-75
2024/02/21 05:00:45;;;;;;;8.27;3.10;;;8.40;99.90;;;;;;5058369;28;20574;-75
2024/02/21 05:03:13;;;;;;;3.42;2.90;;;8.20;99.90;;;;;;5061304;28;20442;-76
2024/02/21 05:05:41;;;;;;;5.40;3.03;;;8.10;99.90;;;;;;5063103;28;20978;-77
2024/02/21 05:08:11;;;;;;;3.40;2.70;;;8.10;99.90;;;;;;5065774;28;20448;-80
2024/02/21 05:10:39;;;;;;;4.23;2.90;;;8.20;99.90;;;;;;5064047;28;20459;-77
2024/02/21 05:13:08;;;;;;;4.70;3.00;;;8.20;99.90;;;;;;5063806;28;20475;-79
2024/02/21 05:15:36;;;;;;;5.63;4.70;;;8.10;99.90;;;;;;5063128;28;20460;-77
2024/02/21 05:18:07;;;;;;;3.37;2.67;;;8.10;99.90;;;;;;5060560;28;20480;-76
2024/02/21 05:20:35;;;;;;;4.93;2.77;;;8.10;99.90;;;;;;5063261;28;20453;-77
2024/02/21 05:23:04;;;;;;;12.33;4.37;;;8.10;99.90;;;;;;5064657;28;20466;-79
2024/02/21 05:25:32;;;;;;;5.07;3.40;;;8.20;99.90;;;;;;5065709;28;20460;-79
2024/02/21 05:28:02;;;;;;;4.23;2.87;;;8.20;99.90;;;;;;5064759;28;20478;-80
2024/02/21 05:30:30;;;;;;;3.20;2.77;;;8.20;99.90;;;;;;5062450;28;20462;-79
2024/02/21 05:32:59;;;;;;;3.30;2.57;;;8.20;99.90;;;;;;5062836;28;20472;-81
2024/02/21 05:35:29;;;;;;;8.17;3.63;;;8.20;99.90;;;;;;5064560;28;20443;-75
2024/02/21 05:37:59;;;;;;;5.20;2.40;;;8.20;99.90;;;;;;5060336;28;20941;-78
2024/02/21 05:40:27;;;;;;;3.57;2.67;;;8.10;99.90;;;;;;5058935;28;20451;-79
2024/02/21 05:42:56;;;;;;;3.40;3.10;;;8.10;99.90;;;;;;5063060;28;20448;-76
2024/02/21 05:45:24;;;;;;;2.57;2.30;;;8.00;99.90;;;;;;5058925;28;20509;-75
2024/02/21 05:47:52;;;;;;;6.03;2.53;;;8.10;99.90;;;;;;5064878;28;20447;-77
2024/02/21 05:50:21;;;;;;;3.40;2.63;;;8.10;99.90;;;;;;5059556;28;20887;-78
2024/02/21 05:52:52;;;;;;;4.13;2.37;;;8.00;99.90;;;;;;5061597;28;20483;-77
2024/02/21 05:55:20;;;;;;;5.90;2.40;;;7.90;99.90;;;;;;5059952;28;20548;-77
2024/02/21 05:57:49;;;;;;;5.43;2.80;;;8.10;99.90;;;;;;5060409;28;20544;-76
2024/02/21 06:00:17;;;;;;;2.20;2.00;;;8.10;99.90;;;;;;5062207;28;20463;-78
2024/02/21 06:02:46;;;;;;;5.77;2.70;;;8.10;99.90;;;;;;5062259;28;20470;-80
2024/02/21 06:05:14;;;;;;;4.90;2.67;;;8.20;99.90;;;;;;5062156;28;20466;-76
2024/02/21 06:07:42;;;;;;;3.50;2.43;;;8.10;99.90;;;;;;5059454;28;20508;-76
2024/02/21 06:10:12;;;;;;;5.90;2.50;;;8.00;99.90;;;;;;5059549;28;20517;-77
2024/02/21 06:12:41;;;;;;;4.07;2.30;;;8.00;99.90;;;;;;5059554;28;20488;-76
2024/02/21 06:15:09;;;;;;;2.30;2.10;;;8.00;99.90;;;;;;5057852;28;20479;-75
2024/02/21 06:17:38;;;;;;;4.00;2.60;;;8.00;99.90;;;;;;5061646;28;20456;-77
2024/02/21 06:20:07;;;;;;;4.33;3.07;;;8.00;99.90;;;;;;5061307;28;20454;-79
2024/02/21 06:22:35;;;;;;;2.87;2.50;;;8.00;99.90;;;;;;5057087;28;20479;-75
2024/02/21 06:25:03;;;;;;;3.93;2.70;;;8.00;99.90;;;;;;5059658;28;20452;-77
2024/02/21 06:27:33;;;;;;;5.27;2.90;;;8.00;99.90;;;;;;5060815;28;21154;-78
2024/02/21 06:30:02;;;;;;;2.83;2.57;;;7.90;99.90;;;;;;5059877;28;20512;-76
2024/02/21 06:32:31;;;;;;;2.73;2.53;;;7.90;99.90;;;;;;5058225;28;21004;-76
2024/02/21 06:35:01;;;;;;;3.73;2.50;;;7.90;99.90;;;;;;5058124;28;20488;-80
2024/02/21 06:37:29;;;;;;;8.63;4.37;;;7.90;99.90;;;;;;5058937;28;20876;-75
2024/02/21 06:39:59;;;;;;;5.27;4.77;;;7.90;99.90;;;;;;5057240;28;20455;-79
2024/02/21 06:42:27;;;;;;;4.73;2.90;;;8.00;99.90;;;;;;5061408;28;20483;-77
2024/02/21 06:44:57;;;;;;;8.27;6.07;;;7.90;99.90;;;;;;5059511;28;20538;-76
2024/02/21 06:47:25;;;;;;;8.33;4.53;;;7.80;99.90;;;;;;5057167;28;20454;-78
2024/02/21 06:49:53;;;;;;;4.60;3.47;;;7.90;99.90;;;;;;5060404;28;21046;-77
2024/02/21 06:52:23;;;;;;;4.23;2.97;;;7.90;99.90;;;;;;5059424;28;20476;-77
2024/02/21 06:54:52;;;;;;;3.67;2.60;;;8.00;99.90;;;;;;5059303;28;21007;-78
2024/02/21 06:57:20;;;;;;;5.30;3.30;;;8.00;99.90;;;;;;5060160;28;20463;-76
2024/02/21 06:59:48;;;;;;;3.03;2.60;;;8.10;99.90;;;;;;5061738;28;20542;-79
2024/02/21 07:02:17;;;;;;;5.10;2.53;;;8.20;99.90;;;;;;5058560;28;20463;-77
2024/02/21 07:04:45;;;;;;;3.87;2.50;;;8.10;99.90;;;;;;5061253;28;20439;-78
2024/02/21 07:07:14;;;;;;;3.13;2.43;;;8.10;99.90;;;;;;5060575;28;20439;-77
2024/02/21 07:09:42;;;;;;;4.63;2.53;;;8.10;99.90;;;;;;5058459;28;20480;-77
2024/02/21 07:12:10;;;;;;;5.07;2.77;;;8.10;99.90;;;;;;5061131;28;20476;-77
2024/02/21 07:14:38;;;;;;;3.73;2.80;;;8.10;99.90;;;;;;5061331;28;20479;-76
2024/02/21 07:17:07;;;;;;;7.70;3.27;;;8.10;99.90;;;;;;5059120;28;20517;-76
2024/02/21 07:19:36;;;;;;;4.67;3.80;;;8.20;99.90;;;;;;5060808;28;20488;-77
2024/02/21 07:22:05;;;;;;;5.47;3.27;;;8.30;99.90;;;;;;5059658;28;20845;-77
2024/02/21 07:24:33;;;;;;;6.03;3.17;;;8.40;99.90;;;;;;5055774;28;20440;-77
2024/02/21 07:27:04;;;;;;;3.60;3.30;;;8.40;99.90;;;;;;5061891;28;20452;-75
2024/02/21 07:29:32;;;;;;;3.80;2.70;;;8.40;99.90;;;;;;5057842;28;20459;-79
2024/02/21 07:32:01;;;;;;;4.00;2.60;;;8.50;99.90;;;;;;5059660;28;20459;-78
2024/02/21 07:34:29;;;;;;;4.33;3.33;;;8.50;99.90;;;;;;5055181;28;20479;-77
2024/02/21 07:36:59;;;;;;;5.00;2.63;;;8.40;99.90;;;;;;5057929;28;20455;-76
2024/02/21 07:39:27;;;;;;;3.53;3.10;;;8.50;99.90;;;;;;5064076;28;21251;-78
2024/02/21 07:41:55;;;;;;;6.00;2.50;;;8.60;99.90;;;;;;5060213;28;21014;-76
2024/02/21 07:44:23;;;;;;;4.37;3.23;;;8.40;99.90;;;;;;5058119;28;20458;-76
2024/02/21 07:46:51;;;;;;;4.13;3.17;;;8.60;99.90;;;;;;5061169;28;20829;-77
2024/02/21 07:49:20;;;;;;;5.43;3.13;;;8.60;99.90;;;;;;5061441;28;20546;-78
2024/02/21 07:51:48;;;;;;;4.87;3.13;;;8.50;99.90;;;;;;5063984;28;20485;-76
2024/02/21 07:54:18;;;;;;;3.50;3.20;;;8.50;99.90;;;;;;5063970;28;21151;-76
2024/02/21 07:56:48;;;;;;;4.30;3.10;;;8.60;99.90;;;;;;5057185;28;20449;-76
2024/02/21 07:59:16;;;;;;;4.97;3.10;;;8.70;99.90;;;;;;5061339;28;20200;-76
2024/02/21 08:01:45;;;;;;;5.10;3.27;;;8.90;99.90;;;;;;5063385;28;20549;-78
2024/02/21 08:04:14;;;;;;;3.57;3.03;;;8.70;99.90;;;;;;5065438;28;20523;-76
2024/02/21 08:06:43;;;;;;;5.80;3.63;;;8.80;99.90;;;;;;5064594;28;20524;-79
2024/02/21 08:09:14;;;;;;;5.30;2.80;;;9.00;99.90;;;;;;5066447;28;20446;-76
2024/02/21 08:11:44;;;;;;;5.20;2.97;;;9.20;99.90;;;;;;5061806;28;20468;-79
2024/02/21 08:14:15;;;;;;;5.90;3.30;;;9.30;99.90;;;;;;5064290;28;20511;-77
2024/02/21 08:16:47;;;;;;;4.33;2.70;;;9.20;99.90;;;;;;5066253;28;20543;-79
2024/02/21 08:19:15;;;;;;;4.90;2.90;;;9.30;99.90;;;;;;5061697;28;20971;-80
2024/02/21 08:21:46;;;;;;;5.77;3.00;;;9.40;99.90;;;;;;5061053;28;20243;-79
2024/02/21 08:24:15;;;;;;;2.60;2.37;;;9.50;99.90;;;;;;5064483;28;20435;-77
2024/02/21 08:26:45;;;;;;;6.37;2.93;;;9.60;99.90;;;;;;5062583;28;20768;-77
2024/02/21 08:29:14;;;;;;;4.10;2.80;;;9.70;99.90;;;;;;5062047;28;20508;-78
2024/02/21 08:31:42;;;;;;;6.77;3.60;;;9.90;99.90;;;;;;5062017;28;21016;-79
2024/02/21 08:34:10;;;;;;;7.07;3.20;;;9.90;99.90;;;;;;5063994;28;20527;-78
2024/02/21 08:36:38;;;;;;;2.87;2.67;;;9.90;99.90;;;;;;5065337;28;20465;-77
2024/02/21 08:39:09;;;;;;;4.97;2.70;;;10.00;99.90;;;;;;5065585;28;20443;-78
2024/02/21 08:41:38;;;;;;;5.63;4.20;;;10.10;99.90;;;;;;5064002;28;20463;-79
2024/02/21 08:44:25;;;;;;;2.97;2.77;;;10.20;99.90;;;;;;5063073;28;21106;-77
2024/02/21 08:46:55;;;;;;;4.67;2.90;;;10.10;99.90;;;;;;5065288;28;20470;-79
2024/02/21 08:49:26;;;;;;;7.53;2.70;;;10.10;99.90;;;;;;5060677;28;20638;-77
2024/02/21 08:51:58;;;;;;;6.67;3.53;;;10.10;99.90;;;;;;5063181;28;20570;-78
2024/02/21 08:54:27;;;;;;;3.17;2.77;;;10.20;99.90;;;;;;5059960;28;20529;-76
2024/02/21 08:56:56;;;;;;;3.43;2.30;;;10.20;99.90;;;;;;5058360;28;20451;-80
2024/02/21 08:59:26;;;;;;;7.13;2.70;;;10.20;99.90;;;;;;5063848;28;20518;-78
2024/02/21 09:01:54;;;;;;;3.20;2.70;;;10.20;99.90;;;;;;5062092;28;20540;-75
2024/02/21 09:04:22;;;;;;;3.33;2.53;;;10.20;99.90;;;;;;5063400;28;20454;-77
2024/02/21 09:06:52;;;;;;;5.70;2.63;;;10.30;99.90;;;;;;5061500;28;20444;-77
2024/02/21 09:09:21;;;;;;;5.10;2.50;;;10.20;99.90;;;;;;5064676;28;20451;-74
2024/02/21 09:11:49;;;;;;;3.97;2.30;;;10.20;99.90;;;;;;5062069;28;20562;-78
2024/02/21 09:14:17;;;;;;;5.60;3.37;;;10.30;99.90;;;;;;5060583;28;20468;-78
2024/02/21 09:16:47;;;;;;;2.90;2.70;;;10.40;99.90;;;;;;5064585;28;20979;-78
2024/02/21 09:19:15;;;;;;;6.63;2.70;;;10.50;99.90;;;;;;5063460;28;20480;-80
2024/02/21 09:21:43;;;;;;;4.33;2.50;;;10.60;99.90;;;;;;5061275;28;20528;-79
2024/02/21 09:24:12;;;;;;;2.80;2.03;;;10.70;99.90;;;;;;5059551;28;20471;-76
2024/02/21 09:26:40;;;;;;;4.60;2.70;;;10.70;99.90;;;;;;5058713;28;20456;-77
2024/02/21 09:29:08;;;;;;;8.47;3.70;;;11.00;99.90;;;;;;5060916;28;20448;-75
2024/02/21 09:31:38;;;;;;;3.00;2.73;;;11.20;99.90;;;;;;5060800;28;20473;-76
2024/02/21 09:34:11;;;;;;;6.07;2.73;;;11.40;99.90;;;;;;5057397;28;20580;-79
2024/02/21 09:36:40;;;;;;;6.40;2.70;;;11.70;99.90;;;;;;5058902;28;20470;-76
2024/02/21 09:39:11;;;;;;;3.60;2.70;;;12.20;99.90;;;;;;5062377;28;20868;-77
2024/02/21 09:41:46;;;;;;;2.67;2.40;;;12.40;99.90;;;;;;5054758;28;20474;-76
2024/02/21 09:44:15;;;;;;;4.30;2.30;;;12.50;99.90;;;;;;5057529;28;20442;-78
2024/02/21 09:46:52;;;;;;;4.20;2.37;;;12.50;99.90;;;;;;5061816;28;22124;-79
2024/02/21 09:49:31;;;;;;;3.43;2.30;;;12.60;99.90;;;;;;5061377;28;20450;-80
2024/02/21 09:52:03;;;;;;;5.53;2.33;;;12.60;99.90;;;;;;5057614;28;20467;-75
2024/02/21 09:54:33;;;;;;;2.73;2.00;;;13.20;99.90;;;;;;5059066;28;20663;-77
2024/02/21 09:57:02;;;;;;;3.80;2.93;;;13.70;99.90;;;;;;5059963;28;20529;-77
2024/02/21 09:59:32;;;;;;;2.20;2.00;;;14.30;99.90;;;;;;5059233;28;20492;-78
2024/02/21 10:02:01;;;;;;;3.83;2.50;;;14.60;99.90;;;;;;5060686;28;21243;-79
2024/02/21 10:04:31;;;;;;;7.30;2.60;;;14.60;99.90;;;;;;5059539;28;20451;-75
2024/02/21 10:07:00;;;;;;;3.03;2.50;;;14.70;99.90;;;;;;5059558;28;20953;-78
2024/02/21 10:09:29;;;;;;;6.17;2.53;;;14.50;99.90;;;;;;5059804;28;20491;-74
2024/02/21 10:12:09;;;;;;;6.20;2.90;;;14.60;99.90;;;;;;5060759;28;20827;-77
2024/02/21 10:14:37;;;;;;;5.47;2.00;;;14.60;99.90;;;;;;5060817;28;20535;-79
2024/02/21 10:17:09;;;;;;;6.73;2.50;;;14.40;99.90;;;;;;5058876;28;20456;-78
2024/02/21 10:19:40;;;;;;;2.30;2.10;;;14.20;99.90;;;;;;5059447;28;20555;-77
2024/02/21 10:22:10;;;;;;;2.50;2.30;;;14.30;99.90;;;;;;5059417;28;20467;-76
2024/02/21 10:24:41;;;;;;;3.87;2.37;;;14.20;99.90;;;;;;5059917;28;20488;-76
2024/02/21 10:27:10;;;;;;;3.80;2.80;;;14.10;99.90;;;;;;5060970;28;20534;-77
2024/02/21 10:29:41;;;;;;;4.83;2.20;;;14.20;99.90;;;;;;5057409;28;20447;-77
2024/02/21 10:32:11;;;;;;;3.20;2.83;;;14.40;99.90;;;;;;5057956;28;20462;-76
2024/02/21 10:34:43;;;;;;;3.00;2.50;;;14.80;99.90;;;;;;5060154;28;20555;-75
2024/02/21 10:37:13;;;;;;;5.60;2.87;;;14.70;99.90;;;;;;5060657;28;20447;-78
2024/02/21 10:39:44;;;;;;;4.20;2.20;;;14.50;99.90;;;;;;5061310;28;20458;-78
2024/02/21 10:42:14;;;;;;;6.57;2.07;;;14.40;99.90;;;;;;5058033;28;20467;-77
2024/02/21 10:44:44;;;;;;;3.30;2.20;;;14.30;99.90;;;;;;5061442;28;20531;-77
2024/02/21 10:47:14;;;;;;;3.73;2.30;;;14.40;99.90;;;;;;5059711;28;20825;-79
2024/02/21 10:49:47;;;;;;;3.20;2.20;;;14.80;99.90;;;;;;5057550;28;20825;-76
2024/02/21 10:52:25;;;;;;;3.70;2.00;;;15.30;99.90;;;;;;5058281;28;21283;-75
2024/02/21 10:54:57;;;;;;;3.63;1.80;;;15.40;99.90;;;;;;5056100;28;20499;-76
2024/02/21 10:57:27;;;;;;;2.60;1.70;;;15.70;99.90;;;;;;5058436;28;20486;-76
2024/02/21 10:59:56;;;;;;;1.93;1.83;;;15.80;99.90;;;;;;5059066;28;20451;-75
2024/02/21 11:02:25;;;;;;;3.63;2.47;;;15.70;99.90;;;;;;5059731;28;20459;-77
2024/02/21 11:04:56;;;;;;;2.33;2.10;;;15.40;99.90;;;;;;5058685;28;20479;-75
2024/02/21 11:07:25;;;;;;;6.80;2.50;;;15.40;99.90;;;;;;5058672;28;20459;-78
2024/02/21 11:09:55;;;;;;;3.13;2.43;;;15.40;99.90;;;;;;5055228;28;20980;-75
2024/02/21 11:12:25;;;;;;;2.00;1.90;;;15.40;99.90;;;;;;5056219;28;20471;-75
2024/02/21 11:14:53;;;;;;;3.23;2.23;;;15.30;99.90;;;;;;5054847;28;20816;-77
2024/02/21 11:17:25;;;;;;;5.97;2.13;;;14.90;98.70;;;;;;5058004;28;20514;-75
2024/02/21 11:19:55;;;;;;;2.63;1.63;;;14.80;98.30;;;;;;5055650;28;20440;-78
2024/02/21 11:22:25;;;;;;;4.13;1.70;;;14.60;96.80;;;;;;5053528;28;21602;-77
2024/02/21 11:24:53;;;;;;;5.77;1.87;;;14.70;98.10;;;;;;5063636;28;20537;-81
2024/02/21 11:27:24;;;;;;;2.77;1.67;;;14.70;97.90;;;;;;5060869;28;20455;-77
2024/02/21 11:29:58;;;;;;;6.10;5.60;;;14.70;97.70;;;;;;5060973;28;20858;-78
2024/02/21 11:32:27;;;;;;;1.90;1.80;;;14.70;98.40;;;;;;5061619;28;20467;-78
2024/02/21 11:35:01;;;;;;;3.60;1.80;;;14.80;98.70;;;;;;5061334;28;20960;-76
2024/02/21 11:37:33;;;;;;;2.27;1.70;;;14.60;97.70;;;;;;5059728;28;20511;-76
2024/02/21 11:40:03;;;;;;;2.23;1.90;;;14.50;95.40;;;;;;5062745;28;20458;-82
2024/02/21 11:42:32;;;;;;;1.80;1.70;;;14.20;93.70;;;;;;5062465;28;20468;-79
2024/02/21 11:45:00;;;;;;;4.17;1.83;;;13.80;90.60;;;;;;5063206;28;20451;-76
2024/02/21 11:47:30;;;;;;;2.40;2.07;;;13.50;86.50;;;;;;5062628;28;20447;-77
2024/02/21 11:49:59;;;;;;;2.90;2.03;;;13.50;87.20;;;;;;5064467;28;20451;-79
2024/02/21 11:52:28;;;;;;;3.87;2.50;;;13.30;84.70;;;;;;5062305;28;20474;-76
2024/02/21 11:55:04;;;;;;;1.97;1.70;;;13.30;84.20;;;;;;5067182;28;20632;-77
2024/02/21 11:57:35;;;;;;;5.37;2.93;;;13.20;82.30;;;;;;5060955;28;20482;-77
2024/02/21 12:00:13;;;;;;;2.50;1.90;;;13.20;83.60;;;;;;5065426;28;20515;-74
2024/02/21 12:02:42;;;;;;;1.83;1.70;;;13.20;87.80;;;;;;5063146;28;20536;-77
2024/02/21 12:05:11;;;;;;;3.17;1.87;;;13.20;84.00;;;;;;5060684;28;20464;-80
2024/02/21 12:07:41;;;;;;;4.33;1.70;;;13.20;85.00;;;;;;5063387;28;20448;-83
2024/02/21 12:10:10;;;;;;;4.23;1.80;;;13.30;85.80;;;;;;5056857;28;20448;-81
2024/02/21 12:12:39;;;;;;;2.50;1.73;;;13.30;87.10;;;;;;5063826;28;21069;-78
2024/02/21 12:15:09;;;;;;;4.07;1.77;;;13.30;85.40;;;;;;5065164;28;20457;-79
2024/02/21 12:17:37;;;;;;;3.13;1.67;;;13.40;83.40;;;;;;5065885;28;20573;-77
2024/02/21 12:20:08;;;;;;;2.50;1.80;;;13.50;85.00;;;;;;5063725;28;20798;-75
2024/02/21 12:22:39;;;;;;;1.60;1.50;;;13.60;85.20;;;;;;5063997;28;20470;-78
2024/02/21 12:25:18;;;;;;;2.23;1.90;;;13.70;83.30;;;;;;5062080;28;20467;-77
2024/02/21 12:27:46;;;;;;;1.60;1.50;;;13.70;83.90;;;;;;5062635;28;20447;-78
2024/02/21 12:30:15;;;;;;;1.70;1.60;;;13.80;83.00;;;;;;5062457;28;20468;-78
2024/02/21 12:32:43;;;;;;;1.70;1.60;;;13.80;82.10;;;;;;5068452;28;21266;-78
2024/02/21 12:35:12;;;;;;;3.03;2.53;;;13.80;82.60;;;;;;5061252;28;20464;-78
2024/02/21 12:37:42;;;;;;;2.10;1.53;;;13.80;83.20;;;;;;5061905;28;20484;-79
2024/02/21 12:40:13;;;;;;;2.00;1.80;;;13.80;79.80;;;;;;5058788;28;20452;-77
2024/02/21 12:42:42;;;;;;;1.73;1.63;;;13.70;80.60;;;;;;5061446;28;20464;-78
2024/02/21 12:45:10;;;;;;;1.50;1.40;;;13.60;77.00;;;;;;5064393;28;20526;-76
2024/02/21 12:47:39;;;;;;;1.70;1.60;;;13.50;75.20;;;;;;5062062;28;20441;-79
2024/02/21 12:50:09;;;;;;;2.37;1.70;;;13.60;76.20;;;;;;5065760;28;20447;-77
2024/02/21 12:52:37;;;;;;;1.70;1.60;;;13.70;79.80;;;;;;5055454;28;20500;-79
2024/02/21 12:55:10;;;;;;;1.97;1.60;;;13.60;72.70;;;;;;5064092;28;20532;-79
2024/02/21 12:57:39;;;;;;;1.30;1.30;;;13.60;74.20;;;;;;5065708;28;20473;-76
2024/02/21 13:00:11;;;;;;;1.83;1.73;;;13.60;77.30;;;;;;5061944;28;20466;-80
2024/02/21 13:02:39;;;;;;;3.20;1.93;;;13.50;71.00;;;;;;5063957;28;20473;-78